Time;durP1;ratioP1;P1;durP2;ratioP2;P2;SDS_P1;SDS_P2;PMS_P1;PMS_P2;Temp;Humidity;BMP_temperature;BMP_pressure;BME280_temperature;BME280_humidity;BME280_pressure;Samples;Min_cycle;Max_cycle;Signal;HPM_P1;HPM_P2
2023/12/23 00:01:31;;;;;;;14.10;13.70;;;22.80;49.70;;;;;;4991554;28;20477;-68
2023/12/23 00:03:59;;;;;;;13.60;13.30;;;22.80;49.70;;;;;;4991753;28;20471;-68
2023/12/23 00:06:27;;;;;;;14.63;14.27;;;22.80;49.70;;;;;;4992972;28;20534;-67
2023/12/23 00:08:54;;;;;;;15.00;14.60;;;22.80;49.80;;;;;;4997160;28;20569;-68
2023/12/23 00:11:21;;;;;;;15.00;14.60;;;22.80;49.80;;;;;;4991650;28;20475;-67
2023/12/23 00:13:48;;;;;;;15.40;15.00;;;22.80;49.80;;;;;;4994658;28;20474;-68
2023/12/23 00:16:14;;;;;;;15.57;15.07;;;22.80;49.80;;;;;;4998858;28;20478;-67
2023/12/23 00:18:41;;;;;;;14.60;14.20;;;22.70;49.80;;;;;;4994799;28;20459;-67
2023/12/23 00:21:10;;;;;;;15.10;14.70;;;22.70;49.80;;;;;;4994985;28;20507;-68
2023/12/23 00:23:38;;;;;;;14.90;14.50;;;22.70;49.80;;;;;;4995082;28;20446;-69
2023/12/23 00:26:05;;;;;;;16.00;15.50;;;22.70;49.90;;;;;;4994995;28;20998;-68
2023/12/23 00:28:32;;;;;;;15.00;14.50;;;22.70;49.90;;;;;;4995566;28;20506;-67
2023/12/23 00:30:59;;;;;;;14.23;13.93;;;22.70;49.90;;;;;;4994883;28;20471;-67
2023/12/23 00:33:25;;;;;;;15.00;14.60;;;22.70;49.90;;;;;;4995178;28;20939;-68
2023/12/23 00:35:52;;;;;;;14.27;13.97;;;22.70;49.90;;;;;;4986987;28;20852;-67
2023/12/23 00:38:19;;;;;;;14.00;13.70;;;22.70;50.00;;;;;;4998091;28;20541;-67
2023/12/23 00:40:47;;;;;;;14.13;13.73;;;22.70;50.00;;;;;;4994703;28;20477;-66
2023/12/23 00:43:14;;;;;;;14.00;13.70;;;22.70;50.00;;;;;;4994782;28;20478;-67
2023/12/23 00:45:40;;;;;;;16.70;16.30;;;22.70;50.00;;;;;;4995210;28;21148;-66
2023/12/23 00:48:07;;;;;;;14.60;14.20;;;22.70;50.00;;;;;;4994291;28;20517;-67
2023/12/23 00:50:35;;;;;;;14.07;13.77;;;22.70;50.10;;;;;;4994415;28;20294;-66
2023/12/23 00:53:02;;;;;;;13.83;13.43;;;22.70;50.10;;;;;;4994698;28;20826;-67
2023/12/23 00:55:29;;;;;;;13.47;13.07;;;22.60;50.00;;;;;;4994951;28;20871;-67
2023/12/23 00:57:57;;;;;;;14.07;13.67;;;22.60;50.10;;;;;;4994200;28;20483;-67
2023/12/23 01:00:24;;;;;;;12.80;12.47;;;22.60;50.10;;;;;;4994351;28;20478;-67
2023/12/23 01:02:51;;;;;;;13.03;12.67;;;22.60;50.10;;;;;;4994320;28;20467;-67
2023/12/23 01:05:18;;;;;;;14.10;13.60;;;22.60;50.10;;;;;;4994217;28;20530;-66
2023/12/23 01:07:45;;;;;;;13.70;13.40;;;22.60;50.10;;;;;;4994451;28;20497;-66
2023/12/23 01:10:12;;;;;;;13.63;13.30;;;22.60;50.10;;;;;;4994201;28;20830;-67
2023/12/23 01:12:39;;;;;;;13.53;13.23;;;22.60;50.20;;;;;;4994230;28;20500;-66
2023/12/23 01:15:08;;;;;;;13.70;13.40;;;22.60;50.20;;;;;;4994105;28;20889;-66
2023/12/23 01:17:35;;;;;;;13.73;13.40;;;22.60;50.20;;;;;;4993785;28;20478;-67
2023/12/23 01:20:03;;;;;;;13.60;13.20;;;22.60;50.20;;;;;;5002588;23;20531;-66
2023/12/23 01:22:30;;;;;;;13.50;13.20;;;22.60;50.20;;;;;;4988007;28;20447;-66
2023/12/23 01:24:57;;;;;;;14.10;13.70;;;22.60;50.20;;;;;;4993356;28;20447;-66
2023/12/23 01:27:24;;;;;;;13.67;13.37;;;22.60;50.20;;;;;;4993852;28;20486;-66
2023/12/23 01:29:51;;;;;;;13.10;12.80;;;22.60;50.20;;;;;;4993017;28;20573;-66
2023/12/23 01:32:19;;;;;;;13.40;13.00;;;22.60;50.20;;;;;;4993842;28;20443;-66
2023/12/23 01:34:46;;;;;;;14.43;14.03;;;22.50;50.20;;;;;;4993626;28;20475;-66
2023/12/23 01:37:13;;;;;;;13.60;13.20;;;22.50;50.20;;;;;;4993586;28;20567;-66
2023/12/23 01:39:40;;;;;;;13.57;13.27;;;22.60;50.30;;;;;;4993144;28;20486;-66
2023/12/23 01:42:07;;;;;;;13.67;13.27;;;22.50;50.20;;;;;;4993588;28;20479;-66
2023/12/23 01:44:34;;;;;;;14.07;13.77;;;22.50;50.30;;;;;;4993353;28;20486;-66
2023/12/23 01:47:03;;;;;;;13.67;13.27;;;22.50;50.30;;;;;;4992869;28;20479;-66
2023/12/23 01:49:32;;;;;;;13.43;13.13;;;22.50;50.30;;;;;;4993325;28;20511;-66
2023/12/23 01:52:00;;;;;;;13.63;13.33;;;22.50;50.30;;;;;;4993462;28;20483;-66
2023/12/23 01:54:27;;;;;;;13.50;13.20;;;22.50;50.30;;;;;;4993297;28;20479;-66
2023/12/23 01:56:55;;;;;;;13.50;13.20;;;22.50;50.40;;;;;;4984992;28;20501;-66
2023/12/23 01:59:22;;;;;;;14.27;13.87;;;22.50;50.40;;;;;;4993199;28;21012;-66
2023/12/23 02:01:50;;;;;;;13.20;12.80;;;22.50;50.40;;;;;;4993048;28;20451;-66
2023/12/23 02:04:17;;;;;;;14.00;13.60;;;22.50;50.40;;;;;;4993168;28;20886;-66
2023/12/23 02:06:45;;;;;;;13.20;12.90;;;22.50;50.40;;;;;;4993058;28;20474;-66
2023/12/23 02:09:13;;;;;;;13.70;13.30;;;22.50;50.50;;;;;;4992923;28;20487;-66
2023/12/23 02:11:49;;;;;;;13.87;13.40;;;22.50;50.50;;;;;;4992979;28;20954;-66
2023/12/23 02:14:21;;;;;;;13.50;13.20;;;22.50;50.50;;;;;;4993015;28;20885;-65
2023/12/23 02:16:49;;;;;;;13.40;13.10;;;22.50;50.60;;;;;;4992591;28;20447;-66
2023/12/23 02:19:16;;;;;;;14.17;13.80;;;22.50;50.50;;;;;;4992641;28;20470;-66
2023/12/23 02:21:45;;;;;;;14.17;13.70;;;22.40;50.50;;;;;;4992666;28;20981;-66
2023/12/23 02:24:12;;;;;;;13.33;13.03;;;22.50;50.60;;;;;;4985871;28;20474;-66
2023/12/23 02:26:39;;;;;;;13.60;13.30;;;22.40;50.50;;;;;;4992767;28;20475;-66
2023/12/23 02:29:07;;;;;;;13.83;13.43;;;22.50;50.60;;;;;;4992438;28;20558;-66
2023/12/23 02:31:35;;;;;;;14.40;14.10;;;22.50;50.60;;;;;;4992527;28;20479;-66
2023/12/23 02:34:02;;;;;;;13.50;13.20;;;22.40;50.60;;;;;;4992340;28;20475;-66
2023/12/23 02:36:29;;;;;;;13.80;13.30;;;22.40;50.60;;;;;;4991878;28;20483;-66
2023/12/23 02:38:58;;;;;;;13.87;13.47;;;22.40;50.60;;;;;;4984464;28;20463;-66
2023/12/23 02:41:25;;;;;;;13.30;13.00;;;22.40;50.60;;;;;;4992526;28;20474;-66
2023/12/23 02:43:51;;;;;;;13.43;13.13;;;22.40;50.60;;;;;;4992063;28;21183;-66
2023/12/23 02:46:18;;;;;;;15.07;14.63;;;22.40;50.70;;;;;;4992489;28;20818;-68
2023/12/23 02:48:46;;;;;;;13.83;13.53;;;22.40;50.70;;;;;;4992139;28;20483;-69
2023/12/23 02:51:14;;;;;;;13.87;13.47;;;22.50;51.00;;;;;;4989165;28;20479;-67
2023/12/23 02:53:47;;;;;;;15.67;15.27;;;22.50;51.20;;;;;;4990298;28;20482;-67
2023/12/23 02:56:17;;;;;;;16.37;15.97;;;22.50;51.30;;;;;;4992368;28;20497;-66
2023/12/23 02:58:44;;;;;;;13.57;13.17;;;22.50;51.40;;;;;;4991987;28;20459;-66
2023/12/23 03:01:11;;;;;;;13.50;13.00;;;22.50;51.50;;;;;;4992068;28;20505;-67
2023/12/23 03:03:42;;;;;;;13.30;13.00;;;22.40;51.60;;;;;;4989799;28;20478;-67
2023/12/23 03:06:15;;;;;;;13.10;12.80;;;22.40;51.70;;;;;;4992242;28;20478;-68
2023/12/23 03:08:43;;;;;;;13.87;13.47;;;22.40;51.70;;;;;;4991548;28;20997;-68
2023/12/23 03:11:10;;;;;;;14.50;14.00;;;22.40;51.70;;;;;;4991749;28;20474;-68
2023/12/23 03:13:38;;;;;;;13.50;13.20;;;22.40;51.80;;;;;;4989156;28;21012;-68
2023/12/23 03:16:16;;;;;;;13.73;13.43;;;22.40;51.80;;;;;;4992176;28;20503;-67
2023/12/23 03:18:45;;;;;;;14.63;14.30;;;22.40;51.80;;;;;;4991924;28;20469;-67
2023/12/23 03:21:12;;;;;;;14.67;14.37;;;22.40;51.90;;;;;;4991867;28;20497;-67
2023/12/23 03:23:39;;;;;;;14.43;14.03;;;22.50;52.10;;;;;;4989377;28;20479;-66
2023/12/23 03:26:08;;;;;;;15.13;14.73;;;22.40;52.00;;;;;;4992203;28;20478;-67
2023/12/23 03:28:35;;;;;;;14.63;14.23;;;22.40;51.90;;;;;;4991861;28;20487;-66
2023/12/23 03:31:03;;;;;;;14.47;14.17;;;22.40;51.90;;;;;;4991937;28;20486;-66
2023/12/23 03:33:30;;;;;;;13.80;13.50;;;22.40;52.00;;;;;;4991462;28;20479;-66
2023/12/23 03:35:58;;;;;;;13.90;13.60;;;22.40;52.00;;;;;;4991953;28;20467;-67
2023/12/23 03:38:26;;;;;;;14.70;14.20;;;22.40;52.10;;;;;;4991926;28;20491;-67
2023/12/23 03:40:53;;;;;;;13.77;13.37;;;22.40;52.10;;;;;;4991821;28;20618;-67
2023/12/23 03:43:20;;;;;;;13.30;13.00;;;22.40;52.10;;;;;;4991489;28;20473;-66
2023/12/23 03:45:47;;;;;;;14.53;14.13;;;22.40;52.10;;;;;;4991831;28;20551;-66
2023/12/23 03:48:15;;;;;;;14.40;14.00;;;22.40;52.10;;;;;;4993850;28;20532;-66
2023/12/23 03:50:42;;;;;;;13.73;13.43;;;22.40;52.00;;;;;;4995451;28;20482;-66
2023/12/23 03:53:09;;;;;;;13.63;13.33;;;22.40;52.10;;;;;;4995287;28;20470;-66
2023/12/23 03:55:38;;;;;;;14.03;13.73;;;22.40;52.00;;;;;;4995547;28;20994;-66
2023/12/23 03:58:05;;;;;;;14.00;13.70;;;22.40;51.90;;;;;;4995376;28;20529;-66
2023/12/23 04:00:32;;;;;;;14.30;13.90;;;22.40;51.90;;;;;;4995245;28;20809;-66
2023/12/23 04:02:59;;;;;;;14.77;14.30;;;22.40;51.90;;;;;;4995552;28;20853;-65
2023/12/23 04:05:28;;;;;;;13.83;13.53;;;22.40;51.90;;;;;;4995431;28;20450;-66
2023/12/23 04:07:54;;;;;;;13.97;13.63;;;22.40;51.80;;;;;;4995121;28;20446;-66
2023/12/23 04:10:21;;;;;;;15.00;14.60;;;22.40;52.00;;;;;;4994614;28;20511;-65
2023/12/23 04:12:48;;;;;;;14.70;14.20;;;22.40;52.00;;;;;;4994691;28;20478;-65
2023/12/23 04:15:15;;;;;;;14.60;14.10;;;22.40;52.10;;;;;;4995305;28;20478;-67
2023/12/23 04:17:42;;;;;;;13.47;13.17;;;22.50;52.20;;;;;;4994847;28;20478;-67
2023/12/23 04:20:10;;;;;;;14.00;13.70;;;22.40;52.30;;;;;;4994529;28;20462;-66
2023/12/23 04:22:39;;;;;;;14.27;13.87;;;22.40;52.20;;;;;;4994906;28;20454;-67
2023/12/23 04:25:09;;;;;;;14.03;13.70;;;22.40;52.20;;;;;;4994948;28;20915;-66
2023/12/23 04:27:36;;;;;;;14.57;14.17;;;22.40;52.20;;;;;;4994809;28;20455;-67
2023/12/23 04:30:03;;;;;;;14.53;14.20;;;22.40;52.00;;;;;;4994554;28;20478;-68
2023/12/23 04:32:30;;;;;;;13.80;13.50;;;22.40;52.00;;;;;;4993084;28;20438;-67
2023/12/23 04:34:59;;;;;;;14.23;13.83;;;22.40;52.00;;;;;;4994732;28;20493;-68
2023/12/23 04:37:26;;;;;;;14.30;13.90;;;22.50;52.10;;;;;;4994710;28;20446;-67
2023/12/23 04:39:54;;;;;;;14.03;13.73;;;22.50;52.00;;;;;;4991572;28;20472;-67
2023/12/23 04:42:21;;;;;;;14.80;14.40;;;22.50;52.20;;;;;;4994503;28;20478;-67
2023/12/23 04:44:48;;;;;;;14.30;13.90;;;22.50;51.90;;;;;;4994440;28;20451;-66
2023/12/23 04:47:15;;;;;;;13.73;13.37;;;22.60;52.10;;;;;;4994524;28;20443;-66
2023/12/23 04:49:43;;;;;;;13.90;13.50;;;22.60;52.60;;;;;;4994327;28;20549;-67
2023/12/23 04:52:10;;;;;;;14.97;14.57;;;22.60;52.80;;;;;;4994457;28;20447;-65
2023/12/23 04:54:37;;;;;;;14.13;13.83;;;22.60;52.10;;;;;;4994403;28;20486;-66
2023/12/23 04:57:06;;;;;;;14.00;13.60;;;22.60;52.00;;;;;;4994287;28;20443;-66
2023/12/23 04:59:33;;;;;;;15.10;14.70;;;22.70;52.00;;;;;;4993089;28;20537;-66
2023/12/23 05:02:00;;;;;;;15.20;14.67;;;22.70;52.10;;;;;;4994161;28;20471;-65
2023/12/23 05:04:27;;;;;;;15.77;15.37;;;22.60;52.00;;;;;;4994234;28;20511;-66
2023/12/23 05:06:53;;;;;;;15.60;15.10;;;22.70;52.10;;;;;;4993856;28;20487;-66
2023/12/23 05:09:20;;;;;;;16.40;15.93;;;22.70;52.10;;;;;;4994313;28;20518;-66
2023/12/23 05:11:47;;;;;;;14.80;14.40;;;22.70;52.20;;;;;;4994175;28;20794;-67
2023/12/23 05:14:16;;;;;;;14.77;14.37;;;22.70;52.10;;;;;;4994149;28;20502;-66
2023/12/23 05:16:45;;;;;;;14.90;14.50;;;22.70;52.10;;;;;;4993600;28;20459;-67
2023/12/23 05:19:12;;;;;;;17.00;16.50;;;22.70;52.10;;;;;;4993823;28;20498;-67
2023/12/23 05:21:39;;;;;;;16.40;15.90;;;22.80;52.10;;;;;;4993770;28;20485;-67
2023/12/23 05:24:06;;;;;;;15.93;15.40;;;22.80;52.10;;;;;;4993896;28;20945;-66
2023/12/23 05:26:33;;;;;;;15.63;15.17;;;22.80;52.10;;;;;;4993910;28;20471;-66
2023/12/23 05:29:00;;;;;;;16.13;15.73;;;22.90;52.60;;;;;;4993288;28;20546;-68
2023/12/23 05:31:28;;;;;;;14.60;14.20;;;22.80;51.90;;;;;;4993518;28;20479;-66
2023/12/23 05:33:56;;;;;;;16.27;15.77;;;22.80;51.90;;;;;;4993727;28;20518;-66
2023/12/23 05:36:23;;;;;;;14.97;14.60;;;22.90;51.30;;;;;;4993744;28;20820;-66
2023/12/23 05:38:50;;;;;;;15.30;14.90;;;22.90;51.20;;;;;;4993446;28;20498;-65
2023/12/23 05:41:17;;;;;;;15.20;14.80;;;22.90;51.30;;;;;;4992869;28;20889;-65
2023/12/23 05:43:44;;;;;;;15.70;15.30;;;22.80;51.40;;;;;;4993638;28;20870;-65
2023/12/23 05:46:11;;;;;;;15.90;15.40;;;22.90;51.60;;;;;;4993454;28;20519;-65
2023/12/23 05:48:39;;;;;;;16.57;16.10;;;22.80;51.60;;;;;;4993392;28;20525;-65
2023/12/23 05:51:08;;;;;;;16.63;16.23;;;22.90;51.70;;;;;;4993375;28;20506;-65
2023/12/23 05:53:35;;;;;;;17.70;17.20;;;22.90;51.70;;;;;;4992700;28;20447;-65
2023/12/23 05:56:05;;;;;;;17.90;17.40;;;22.90;51.50;;;;;;4993075;28;20926;-65
2023/12/23 05:58:32;;;;;;;17.13;16.73;;;22.90;51.60;;;;;;4993263;28;20466;-65
2023/12/23 06:00:59;;;;;;;16.70;16.30;;;22.90;51.40;;;;;;4993141;28;20438;-65
2023/12/23 06:03:26;;;;;;;16.30;15.90;;;22.90;51.30;;;;;;4993020;28;20542;-65
2023/12/23 06:05:54;;;;;;;16.07;15.67;;;22.90;51.30;;;;;;4993061;28;20470;-65
2023/12/23 06:08:21;;;;;;;15.70;15.20;;;22.90;51.70;;;;;;4992960;28;20487;-65
2023/12/23 06:10:48;;;;;;;16.00;15.50;;;22.90;51.10;;;;;;4992745;28;20557;-65
2023/12/23 06:13:15;;;;;;;15.63;15.13;;;22.90;51.10;;;;;;4992491;28;20470;-65
2023/12/23 06:15:42;;;;;;;15.97;15.57;;;22.90;51.10;;;;;;4992987;28;20475;-65
2023/12/23 06:18:09;;;;;;;17.70;17.20;;;22.90;51.10;;;;;;4992720;28;20474;-65
2023/12/23 06:20:35;;;;;;;17.20;16.70;;;22.90;51.00;;;;;;4993036;28;20447;-65
2023/12/23 06:23:04;;;;;;;16.90;16.40;;;22.90;51.00;;;;;;4992517;28;20474;-65
2023/12/23 06:25:32;;;;;;;17.50;17.00;;;23.00;51.20;;;;;;4992891;28;20478;-65
2023/12/23 06:27:59;;;;;;;15.80;15.40;;;23.00;51.20;;;;;;4992633;28;20482;-65
2023/12/23 06:30:26;;;;;;;15.30;14.90;;;22.90;51.10;;;;;;4992677;28;20509;-65
2023/12/23 06:32:53;;;;;;;15.57;15.07;;;23.00;51.20;;;;;;4992572;28;20443;-65
2023/12/23 06:35:20;;;;;;;15.53;15.13;;;22.90;51.10;;;;;;4992338;28;20482;-65
2023/12/23 06:37:47;;;;;;;15.77;15.27;;;23.00;51.10;;;;;;4992505;28;20558;-65
2023/12/23 06:40:16;;;;;;;16.30;15.80;;;23.00;51.10;;;;;;4992544;28;20498;-66
2023/12/23 06:42:42;;;;;;;16.40;16.00;;;23.00;51.10;;;;;;4992594;28;20470;-66
2023/12/23 06:45:11;;;;;;;16.43;15.93;;;23.00;51.30;;;;;;4992625;28;20475;-65
2023/12/23 06:47:38;;;;;;;16.93;16.13;;;23.00;51.20;;;;;;4992130;28;20869;-65
2023/12/23 06:50:06;;;;;;;16.23;15.73;;;23.00;51.20;;;;;;4992236;28;20541;-65
2023/12/23 06:52:32;;;;;;;16.80;16.30;;;23.00;51.20;;;;;;4992341;28;20474;-65
2023/12/23 06:54:59;;;;;;;15.97;15.57;;;22.90;51.10;;;;;;4992266;28;20478;-65
2023/12/23 06:57:28;;;;;;;17.03;16.43;;;23.00;51.20;;;;;;4992050;28;21012;-65
2023/12/23 06:59:56;;;;;;;16.57;16.10;;;23.00;51.20;;;;;;4992206;28;20487;-65
2023/12/23 07:02:23;;;;;;;17.93;17.43;;;23.00;51.20;;;;;;4992244;28;20447;-65
2023/12/23 07:04:50;;;;;;;16.67;16.17;;;23.00;51.00;;;;;;4992234;28;20442;-65
2023/12/23 07:07:17;;;;;;;16.37;15.97;;;23.00;51.00;;;;;;4992105;28;20494;-65
2023/12/23 07:09:44;;;;;;;16.17;15.77;;;23.00;51.10;;;;;;4991406;28;20522;-65
2023/12/23 07:12:10;;;;;;;17.13;16.70;;;23.00;51.00;;;;;;4992140;28;20471;-65
2023/12/23 07:14:39;;;;;;;17.00;16.50;;;23.00;51.10;;;;;;4992125;28;20452;-65
2023/12/23 07:17:06;;;;;;;17.90;17.40;;;23.00;51.10;;;;;;4991913;28;20869;-65
2023/12/23 07:19:33;;;;;;;16.00;15.60;;;23.00;51.20;;;;;;5001139;23;20491;-64
2023/12/23 07:22:00;;;;;;;18.10;17.60;;;23.00;51.20;;;;;;4985386;28;20472;-64
2023/12/23 07:24:26;;;;;;;16.80;16.40;;;23.00;51.30;;;;;;4996016;28;20483;-64
2023/12/23 07:26:53;;;;;;;17.07;16.57;;;23.00;51.10;;;;;;4995904;28;20890;-64
2023/12/23 07:29:20;;;;;;;17.33;16.73;;;23.00;51.10;;;;;;4995456;28;20521;-64
2023/12/23 07:31:49;;;;;;;17.00;16.60;;;23.00;51.10;;;;;;4992975;28;20586;-64
2023/12/23 07:34:15;;;;;;;17.30;16.60;;;23.00;51.20;;;;;;4995898;28;20475;-64
2023/12/23 07:36:42;;;;;;;18.13;17.63;;;23.00;51.30;;;;;;4995841;28;20478;-65
2023/12/23 07:39:09;;;;;;;17.47;16.97;;;23.00;51.30;;;;;;4988035;28;21067;-65
2023/12/23 07:41:36;;;;;;;16.70;16.20;;;23.00;51.50;;;;;;4995481;28;20474;-65
2023/12/23 07:44:03;;;;;;;16.70;16.17;;;23.00;51.50;;;;;;4995731;28;20481;-65
2023/12/23 07:46:30;;;;;;;16.83;16.30;;;23.00;51.80;;;;;;4995445;28;20853;-63
2023/12/23 07:48:58;;;;;;;17.63;17.17;;;23.00;51.90;;;;;;4995587;28;20891;-65
2023/12/23 07:51:25;;;;;;;17.73;17.17;;;23.00;51.90;;;;;;4995103;28;20553;-64
2023/12/23 07:53:52;;;;;;;17.33;16.73;;;23.00;51.90;;;;;;4995492;28;20482;-65
2023/12/23 07:56:19;;;;;;;16.63;16.13;;;23.00;51.90;;;;;;4995526;28;20450;-66
2023/12/23 07:58:46;;;;;;;16.10;15.60;;;23.00;52.00;;;;;;4995344;28;20534;-62
2023/12/23 08:01:13;;;;;;;16.90;16.40;;;23.10;52.00;;;;;;4995086;28;20475;-62
2023/12/23 08:03:40;;;;;;;17.93;17.43;;;23.10;52.00;;;;;;4995412;28;20501;-63
2023/12/23 08:06:08;;;;;;;18.37;17.87;;;23.20;52.00;;;;;;4995201;28;20470;-62
2023/12/23 08:08:35;;;;;;;17.50;16.97;;;23.30;52.00;;;;;;4995175;28;20483;-66
2023/12/23 08:11:02;;;;;;;18.20;17.60;;;23.30;51.90;;;;;;4994080;28;20536;-66
2023/12/23 08:13:29;;;;;;;16.80;16.30;;;23.30;51.80;;;;;;4992741;28;20859;-67
2023/12/23 08:15:56;;;;;;;19.13;18.53;;;23.30;51.90;;;;;;4995109;28;20453;-61
2023/12/23 08:18:23;;;;;;;16.83;16.43;;;23.30;51.90;;;;;;4995263;28;20474;-65
2023/12/23 08:20:50;;;;;;;16.87;16.27;;;23.30;52.10;;;;;;4994465;28;20501;-66
2023/12/23 08:23:18;;;;;;;16.13;15.63;;;23.40;52.50;;;;;;4994719;28;20481;-66
2023/12/23 08:25:46;;;;;;;17.20;16.60;;;23.40;52.00;;;;;;4994872;28;20482;-68
2023/12/23 08:28:13;;;;;;;16.17;15.67;;;23.40;52.10;;;;;;4987245;28;20470;-68
2023/12/23 08:30:40;;;;;;;18.47;17.97;;;23.50;52.20;;;;;;4992281;28;20571;-68
2023/12/23 08:33:07;;;;;;;18.57;17.60;;;23.50;52.20;;;;;;4994363;28;20443;-70
2023/12/23 08:35:34;;;;;;;19.87;18.57;;;23.50;52.20;;;;;;4993843;28;20512;-68
2023/12/23 08:38:01;;;;;;;19.30;18.27;;;23.60;52.80;;;;;;4994614;28;20474;-66
2023/12/23 08:40:29;;;;;;;21.17;19.43;;;23.60;54.60;;;;;;4994027;28;20852;-67
2023/12/23 08:42:56;;;;;;;20.00;19.10;;;23.60;53.90;;;;;;4994515;28;20978;-66
2023/12/23 08:45:23;;;;;;;19.83;18.90;;;23.60;53.90;;;;;;4994764;28;20478;-65
2023/12/23 08:47:50;;;;;;;21.77;19.80;;;23.60;53.80;;;;;;4994384;28;20526;-65
2023/12/23 08:50:17;;;;;;;19.37;18.13;;;23.60;53.90;;;;;;4989204;28;21009;-66
2023/12/23 08:52:44;;;;;;;19.93;18.93;;;23.60;53.60;;;;;;4993249;28;20474;-65
2023/12/23 08:55:11;;;;;;;19.80;18.80;;;23.70;53.80;;;;;;4993626;28;20513;-65
2023/12/23 08:57:39;;;;;;;18.80;17.63;;;23.70;53.70;;;;;;4994323;28;20475;-66
2023/12/23 09:00:08;;;;;;;17.80;17.20;;;23.70;53.50;;;;;;4993951;28;20502;-66
2023/12/23 09:02:35;;;;;;;17.87;17.17;;;23.70;53.30;;;;;;4994138;28;20450;-65
2023/12/23 09:05:02;;;;;;;19.10;17.90;;;23.60;53.10;;;;;;4994056;28;20903;-66
2023/12/23 09:07:29;;;;;;;18.20;17.50;;;23.60;52.90;;;;;;4994110;28;20479;-66
2023/12/23 09:09:56;;;;;;;19.20;18.30;;;23.60;52.80;;;;;;4993816;28;20494;-65
2023/12/23 09:12:23;;;;;;;19.07;18.33;;;23.70;52.80;;;;;;4993945;28;20510;-66
2023/12/23 09:14:51;;;;;;;17.93;17.27;;;23.60;52.50;;;;;;4993953;28;20471;-66
2023/12/23 09:17:18;;;;;;;17.50;16.70;;;23.60;52.50;;;;;;4993914;28;20522;-66
2023/12/23 09:19:45;;;;;;;18.37;17.50;;;23.70;52.40;;;;;;4993693;28;20559;-65
2023/12/23 09:22:12;;;;;;;19.00;18.30;;;23.70;52.40;;;;;;4993627;28;20467;-65
2023/12/23 09:24:41;;;;;;;17.40;16.87;;;23.70;52.20;;;;;;4993954;28;20482;-66
2023/12/23 09:27:08;;;;;;;18.50;17.70;;;23.70;52.20;;;;;;4993543;28;20842;-66
2023/12/23 09:29:35;;;;;;;18.37;17.43;;;23.70;52.00;;;;;;4989302;28;20889;-68
2023/12/23 09:32:03;;;;;;;17.70;16.90;;;23.70;52.10;;;;;;4993594;28;20506;-67
2023/12/23 09:34:30;;;;;;;18.63;17.83;;;23.70;52.70;;;;;;4989697;28;20447;-67
2023/12/23 09:36:57;;;;;;;19.83;18.73;;;23.70;52.80;;;;;;4986271;28;20474;-66
2023/12/23 09:39:25;;;;;;;18.27;17.47;;;23.70;52.80;;;;;;4993602;28;20491;-66
2023/12/23 09:41:52;;;;;;;18.47;17.60;;;23.70;52.60;;;;;;4994038;28;20439;-66
2023/12/23 09:44:19;;;;;;;18.30;17.20;;;23.70;52.40;;;;;;4993508;28;20446;-67
2023/12/23 09:46:46;;;;;;;17.83;17.13;;;23.70;52.30;;;;;;4993244;28;20978;-66
2023/12/23 09:49:14;;;;;;;19.00;17.93;;;23.70;52.20;;;;;;4993349;28;20501;-66
2023/12/23 09:51:42;;;;;;;18.10;17.30;;;23.70;52.20;;;;;;4993732;28;20502;-65
2023/12/23 09:54:15;;;;;;;18.90;18.20;;;23.70;52.00;;;;;;4993539;28;20478;-66
2023/12/23 09:56:42;;;;;;;18.93;17.57;;;23.70;52.00;;;;;;4993665;28;20478;-66
2023/12/23 09:59:10;;;;;;;18.07;17.37;;;23.80;52.20;;;;;;4992824;28;20551;-67
2023/12/23 10:01:37;;;;;;;18.20;17.70;;;23.80;52.20;;;;;;4992510;28;20541;-67
2023/12/23 10:04:04;;;;;;;18.03;17.43;;;23.80;52.10;;;;;;4993009;28;20443;-68
2023/12/23 10:06:32;;;;;;;18.73;17.13;;;23.80;52.40;;;;;;4992467;28;20930;-66
2023/12/23 10:08:59;;;;;;;18.20;17.60;;;23.80;52.70;;;;;;4992845;28;20491;-69
2023/12/23 10:11:26;;;;;;;18.83;18.13;;;23.80;52.50;;;;;;4992962;28;20553;-68
2023/12/23 10:13:53;;;;;;;19.20;18.60;;;23.80;52.20;;;;;;4992519;28;20474;-69
2023/12/23 10:16:20;;;;;;;18.43;17.73;;;23.80;52.10;;;;;;4992605;28;20938;-68
2023/12/23 10:18:47;;;;;;;18.57;17.87;;;23.80;51.90;;;;;;4992539;28;20878;-68
2023/12/23 10:21:14;;;;;;;17.70;17.10;;;23.80;52.10;;;;;;4992780;28;20466;-69
2023/12/23 10:23:42;;;;;;;18.73;17.93;;;23.80;51.90;;;;;;4993026;28;20521;-68
2023/12/23 10:26:09;;;;;;;17.70;17.07;;;23.80;51.70;;;;;;4992236;28;20467;-66
2023/12/23 10:28:37;;;;;;;18.10;17.50;;;23.80;52.00;;;;;;4992687;28;20473;-68
2023/12/23 10:31:07;;;;;;;19.00;18.30;;;23.80;51.60;;;;;;4992491;28;20565;-66
2023/12/23 10:33:39;;;;;;;17.10;16.60;;;23.90;51.90;;;;;;4992810;28;20443;-66
2023/12/23 10:36:07;;;;;;;18.20;17.60;;;23.80;52.00;;;;;;4992315;28;20443;-67
2023/12/23 10:38:36;;;;;;;18.85;18.15;;;23.90;51.90;;;;;;4992282;28;20464;-65
2023/12/23 10:41:23;;;;;;;18.23;17.63;;;23.90;52.00;;;;;;4992417;28;20634;-66
2023/12/23 10:43:53;;;;;;;18.40;17.80;;;23.90;51.90;;;;;;4992381;28;20470;-65
2023/12/23 10:46:21;;;;;;;18.37;17.77;;;23.90;51.40;;;;;;4984828;28;20926;-66
2023/12/23 10:48:50;;;;;;;18.43;17.80;;;23.90;51.10;;;;;;4992386;28;20451;-65
2023/12/23 10:51:19;;;;;;;18.73;18.03;;;23.90;51.30;;;;;;4992487;28;20517;-66
2023/12/23 10:53:46;;;;;;;18.83;18.23;;;23.90;51.40;;;;;;4992291;28;20639;-65
2023/12/23 10:56:16;;;;;;;19.20;18.50;;;24.00;51.70;;;;;;4991690;28;20470;-65
2023/12/23 10:58:43;;;;;;;18.07;17.47;;;24.00;51.80;;;;;;4991942;28;20451;-66
2023/12/23 11:01:13;;;;;;;17.13;16.63;;;24.00;51.80;;;;;;4992157;28;20482;-66
2023/12/23 11:03:41;;;;;;;18.67;18.07;;;24.00;51.50;;;;;;4989621;28;20475;-65
2023/12/23 11:06:09;;;;;;;17.60;17.10;;;23.90;51.40;;;;;;4990945;28;20479;-67
2023/12/23 11:08:37;;;;;;;17.73;17.23;;;23.90;51.20;;;;;;4992050;28;20949;-67
2023/12/23 11:11:05;;;;;;;19.03;18.40;;;24.00;51.20;;;;;;4991955;28;20513;-66
2023/12/23 11:13:33;;;;;;;18.43;17.90;;;23.90;51.10;;;;;;4991916;28;20809;-66
2023/12/23 11:16:02;;;;;;;18.23;17.73;;;23.90;51.20;;;;;;4991959;28;20471;-66
2023/12/23 11:18:29;;;;;;;18.63;18.10;;;23.90;51.10;;;;;;4992050;28;20471;-66
2023/12/23 11:20:57;;;;;;;18.10;17.60;;;23.90;51.10;;;;;;4991481;28;20885;-68
2023/12/23 11:23:31;;;;;;;17.93;17.37;;;24.00;51.40;;;;;;4990576;28;20470;-68
2023/12/23 11:25:59;;;;;;;19.00;18.40;;;23.90;51.40;;;;;;4991003;28;20480;-69
2023/12/23 11:28:27;;;;;;;19.37;18.67;;;24.00;51.40;;;;;;4991216;28;21168;-68
2023/12/23 11:30:56;;;;;;;18.50;17.60;;;24.00;51.30;;;;;;4990851;28;20491;-68
2023/12/23 11:33:26;;;;;;;18.70;18.10;;;24.00;51.20;;;;;;4990927;28;20474;-64
2023/12/23 11:35:54;;;;;;;19.60;18.90;;;24.00;51.20;;;;;;4987659;28;20477;-66
2023/12/23 11:38:21;;;;;;;19.70;19.00;;;24.00;51.70;;;;;;4983236;28;20475;-66
2023/12/23 11:40:49;;;;;;;17.60;17.10;;;24.00;51.20;;;;;;4990857;28;20891;-65
2023/12/23 11:43:17;;;;;;;17.90;17.30;;;24.00;51.20;;;;;;4990826;28;20478;-66
2023/12/23 11:45:44;;;;;;;17.00;16.50;;;24.00;51.10;;;;;;4990719;28;20470;-66
2023/12/23 11:48:14;;;;;;;16.83;16.27;;;24.00;51.00;;;;;;4985756;28;20538;-65
2023/12/23 11:50:41;;;;;;;18.37;17.87;;;24.00;51.00;;;;;;4988432;28;20467;-65
2023/12/23 11:53:10;;;;;;;19.80;19.20;;;24.00;51.00;;;;;;4990562;28;20483;-67
2023/12/23 11:55:37;;;;;;;20.83;20.23;;;24.00;51.20;;;;;;4991026;28;20471;-67
2023/12/23 11:58:05;;;;;;;20.17;19.57;;;24.10;51.30;;;;;;4990444;28;20858;-67
2023/12/23 12:00:36;;;;;;;21.30;20.30;;;24.00;51.60;;;;;;4990835;28;20491;-65
2023/12/23 12:03:05;;;;;;;19.27;18.77;;;24.00;51.70;;;;;;4988698;28;20436;-64
2023/12/23 12:05:33;;;;;;;19.00;18.50;;;24.10;51.40;;;;;;4990838;28;20482;-64
2023/12/23 12:08:00;;;;;;;19.20;18.60;;;24.10;51.20;;;;;;4988411;28;20475;-66
2023/12/23 12:10:27;;;;;;;18.70;18.20;;;24.10;51.10;;;;;;4994021;28;20487;-67
2023/12/23 12:12:54;;;;;;;18.27;17.77;;;24.10;51.30;;;;;;4993832;28;20506;-70
2023/12/23 12:15:22;;;;;;;18.33;17.83;;;24.00;51.20;;;;;;4978074;28;20466;-62
2023/12/23 12:17:49;;;;;;;20.77;20.07;;;24.10;51.30;;;;;;4993453;28;20477;-62
2023/12/23 12:20:16;;;;;;;20.40;19.80;;;24.10;51.00;;;;;;4954407;28;1162149;-63
2023/12/23 12:22:45;;;;;;;19.40;18.90;;;24.10;50.90;;;;;;4995104;28;20649;-63
2023/12/23 12:25:12;;;;;;;19.13;18.63;;;24.10;51.00;;;;;;4994990;28;20455;-63
2023/12/23 12:27:40;;;;;;;18.27;17.77;;;24.10;50.90;;;;;;4988070;28;20471;-67